Ship Status Report: callsign HP7399

sailwx.info

Track history (hours):
 
Tides and Currents Weather Stations Pressure Air Temp Water Temp Dewpoint Dewpoint Depression Visibility Wind Speed Wind Dir Waves Ship Positions

Callsign HP7399 (name unknown)

Last reported at 2017-Dec-27 19:01 UTC. Time now 2018-Jan-21 08:10 UTC.
Position N 31°23' E 121°35'.
Warning: this ship's position is 24 days out of date.

Date/timePositionNaut miles runAvg speedWind from/ knotsBaromVisibWave heightAir tempDewpointWater temp
2017-Dec-27 19:01N 31°23' E 121°35'2 9.5
2017-Dec-27 18:50N 31°24' E 121°33'4 8.9
2017-Dec-27 18:26N 31°26' E 121°30'3 7.7
2017-Dec-27 18:00N 31°28' E 121°27'5 9.7
2017-Dec-27 17:30N 31°31' E 121°23'5 9.7
2017-Dec-27 17:00N 31°34' E 121°19'611.2
2017-Dec-27 16:31N 31°38' E 121°14'510.5
2017-Dec-27 16:00N 31°42' E 121°09'612.1
2017-Dec-27 15:30N 31°46' E 121°04'4 0.2
2017-Dec-26 14:56N 31°47' E 120°59'1011.0
2017-Dec-26 14:02N 31°42' E 121°09'012.2
2017-Dec-26 14:00N 31°41' E 121°10'611.6
2017-Dec-26 13:29N 31°38' E 121°15'611.7
2017-Dec-26 13:00N 31°33' E 121°20'612.1
2017-Dec-26 12:30N 31°30' E 121°25'5 9.6
2017-Dec-26 11:59N 31°26' E 121°29'4 6.5
2017-Dec-26 11:24N 31°24' E 121°33'  
Track history (hours):
 
Tides and Currents Weather Stations Pressure Air Temp Water Temp Dewpoint Dewpoint Depression Visibility Wind Speed Wind Dir Waves Ship Positions

Callsign HP7399 (name unknown)

Last reported at 2017-Dec-27 19:01 UTC. Time now 2018-Jan-21 08:10 UTC.
Position N 31°23' E 121°35'.
Warning: this ship's position is 24 days out of date.

Date/timePositionNaut miles runAvg speedWind from/ knotsBaromVisibWave heightAir tempDewpointWater temp
2017-Dec-27 19:01N 31°23' E 121°35'2 9.5
2017-Dec-27 18:50N 31°24' E 121°33'4 8.9
2017-Dec-27 18:26N 31°26' E 121°30'3 7.7
2017-Dec-27 18:00N 31°28' E 121°27'5 9.7
2017-Dec-27 17:30N 31°31' E 121°23'5 9.7
2017-Dec-27 17:00N 31°34' E 121°19'611.2
2017-Dec-27 16:31N 31°38' E 121°14'510.5
2017-Dec-27 16:00N 31°42' E 121°09'612.1
2017-Dec-27 15:30N 31°46' E 121°04'4 0.2
2017-Dec-26 14:56N 31°47' E 120°59'1011.0
2017-Dec-26 14:02N 31°42' E 121°09'012.2
2017-Dec-26 14:00N 31°41' E 121°10'611.6
2017-Dec-26 13:29N 31°38' E 121°15'611.7
2017-Dec-26 13:00N 31°33' E 121°20'612.1
2017-Dec-26 12:30N 31°30' E 121°25'5 9.6
2017-Dec-26 11:59N 31°26' E 121°29'4 6.5
2017-Dec-26 11:24N 31°24' E 121°33'  

Dump ship's entire track history